Time;durP1;ratioP1;P1;durP2;ratioP2;P2;SDS_P1;SDS_P2;PMS_P1;PMS_P2;Temp;Humidity;BMP_temperature;BMP_pressure;BME280_temperature;BME280_humidity;BME280_pressure;Samples;Min_cycle;Max_cycle;Signal;HPM_P1;HPM_P2
2023/06/08 00:00:50;;;;;;;;;;;19.60;72.10;;;;;;5055062;28;19915;-81
2023/06/08 00:03:17;;;;;;;;;;;19.60;72.00;;;;;;5058562;28;19917;-81
2023/06/08 00:05:46;;;;;;;;;;;19.60;72.30;;;;;;5056725;28;19908;-81
2023/06/08 00:08:12;;;;;;;;;;;19.50;72.50;;;;;;5059183;28;19970;-81
2023/06/08 00:10:41;;;;;;;;;;;19.40;72.80;;;;;;5060034;28;20372;-80
2023/06/08 00:13:06;;;;;;;;;;;19.40;72.90;;;;;;5062875;28;19916;-80
2023/06/08 00:15:33;;;;;;;;;;;19.40;72.80;;;;;;5057587;28;19924;-81
2023/06/08 00:17:59;;;;;;;;;;;19.40;72.80;;;;;;5057301;28;20385;-82
2023/06/08 00:20:24;;;;;;;;;;;19.40;73.00;;;;;;5053987;28;20291;-81
2023/06/08 00:22:50;;;;;;;;;;;19.40;73.00;;;;;;5058183;28;20429;-81
2023/06/08 00:25:15;;;;;;;;;;;19.30;73.20;;;;;;5053509;28;20228;-81
2023/06/08 00:27:41;;;;;;;;;;;19.30;73.40;;;;;;5063637;28;19985;-81
2023/06/08 00:30:07;;;;;;;;;;;19.30;73.40;;;;;;5062344;28;20028;-82
2023/06/08 00:32:32;;;;;;;;;;;19.30;73.30;;;;;;5059929;28;20454;-82
2023/06/08 00:34:58;;;;;;;;;;;19.30;73.10;;;;;;5063117;28;19908;-80
2023/06/08 00:37:23;;;;;;;;;;;19.40;72.70;;;;;;5056143;28;19917;-82
2023/06/08 00:39:49;;;;;;;;;;;19.40;72.70;;;;;;5057115;28;20394;-80
2023/06/08 00:42:15;;;;;;;;;;;19.30;72.80;;;;;;5050913;28;20754;-80
2023/06/08 00:44:40;;;;;;;;;;;19.30;73.10;;;;;;5063840;28;19918;-81
2023/06/08 00:47:06;;;;;;;;;;;19.20;73.30;;;;;;5060723;28;19948;-80
2023/06/08 00:49:32;;;;;;;;;;;19.10;73.70;;;;;;5060267;28;19936;-81
2023/06/08 00:51:58;;;;;;;;;;;19.00;74.70;;;;;;5062587;28;20322;-83
2023/06/08 00:54:24;;;;;;;;;;;18.90;75.40;;;;;;5058785;28;19913;-82
2023/06/08 00:56:50;;;;;;;;;;;18.80;75.90;;;;;;5061975;28;19928;-81
2023/06/08 00:59:15;;;;;;;;;;;18.70;76.30;;;;;;5060823;28;19908;-81
2023/06/08 01:01:41;;;;;;;;;;;18.80;76.30;;;;;;5062113;28;19986;-82
2023/06/08 01:04:07;;;;;;;;;;;18.80;76.20;;;;;;5056058;28;19919;-81
2023/06/08 01:06:35;;;;;;;;;;;18.60;76.60;;;;;;5054348;28;19913;-81
2023/06/08 01:09:04;;;;;;;;;;;18.60;77.20;;;;;;5060401;28;19962;-81
2023/06/08 01:11:35;;;;;;;;;;;18.60;76.80;;;;;;5048459;28;20011;-82
2023/06/08 01:14:19;;;;;;;;;;;18.60;76.50;;;;;;5051971;28;19919;-81
2023/06/08 01:16:51;;;;;;;;;;;18.70;76.00;;;;;;5051669;28;19916;-82
2023/06/08 01:19:18;;;;;;;;;;;18.70;75.50;;;;;;5059167;28;20361;-82
2023/06/08 01:21:47;;;;;;;;;;;18.70;75.60;;;;;;5050650;28;20057;-81
2023/06/08 01:24:15;;;;;;;;;;;18.70;75.90;;;;;;5053857;28;19921;-82
2023/06/08 01:26:42;;;;;;;;;;;18.60;76.50;;;;;;5054570;28;19917;-84
2023/06/08 01:29:08;;;;;;;;;;;18.60;76.40;;;;;;5046896;28;19917;-82
2023/06/08 01:31:34;;;;;;;;;;;18.50;76.60;;;;;;5056866;28;20007;-82
2023/06/08 01:34:00;;;;;;;;;;;18.60;76.00;;;;;;5056733;28;20584;-81
2023/06/08 01:36:33;;;;;;;;;;;18.60;76.10;;;;;;5052621;28;19980;-81
2023/06/08 01:39:25;;;;;;;;;;;18.60;75.70;;;;;;5056288;28;20089;-81
2023/06/08 01:41:52;;;;;;;;;;;18.60;75.30;;;;;;5032373;28;19912;-81
2023/06/08 01:44:18;;;;;;;;;;;18.50;76.30;;;;;;5057300;28;20069;-81
2023/06/08 01:46:48;;;;;;;;;;;18.30;77.40;;;;;;5049107;28;19963;-81
2023/06/08 01:49:14;;;;;;;;;;;18.20;78.20;;;;;;5052671;28;19912;-81
2023/06/08 01:51:40;;;;;;;;;;;18.20;78.80;;;;;;5031847;28;19913;-81
2023/06/08 01:54:08;;;;;;;;;;;18.10;79.10;;;;;;5052387;28;19920;-82
2023/06/08 01:56:35;;;;;;;;;;;18.00;79.60;;;;;;5057172;28;19924;-82
2023/06/08 01:59:01;;;;;;;;;;;18.10;79.30;;;;;;5057242;28;19912;-85
2023/06/08 02:01:26;;;;;;;;;;;18.20;79.00;;;;;;5056655;28;19932;-83
2023/06/08 02:03:52;;;;;;;;;;;18.20;78.70;;;;;;5044543;28;20282;-83
2023/06/08 02:06:18;;;;;;;;;;;18.20;78.70;;;;;;5052555;28;19913;-83
2023/06/08 02:08:43;;;;;;;;;;;18.20;78.80;;;;;;5060334;28;21501;-83
2023/06/08 02:11:10;;;;;;;;;;;18.10;79.10;;;;;;5060344;28;20391;-82
2023/06/08 02:13:38;;;;;;;;;;;18.00;79.20;;;;;;5053798;28;19919;-82
2023/06/08 02:16:04;;;;;;;;;;;18.00;79.30;;;;;;5039389;28;19927;-81
2023/06/08 02:18:30;;;;;;;;;;;17.90;79.60;;;;;;5051419;28;19928;-82
2023/06/08 02:20:56;;;;;;;;;;;17.90;79.90;;;;;;5054021;28;19923;-81
2023/06/08 02:23:21;;;;;;;;;;;17.90;79.60;;;;;;5054456;28;20379;-80
2023/06/08 02:25:49;;;;;;;;;;;17.90;79.40;;;;;;5057160;28;20422;-81
2023/06/08 02:28:15;;;;;;;;;;;17.80;79.60;;;;;;5058909;28;19908;-80
2023/06/08 02:30:40;;;;;;;;;;;17.80;79.70;;;;;;5059834;28;19909;-82
2023/06/08 02:33:06;;;;;;;;;;;17.60;80.60;;;;;;5062547;28;19920;-81
2023/06/08 02:35:32;;;;;;;;;;;17.60;80.60;;;;;;5064362;28;19916;-82
2023/06/08 02:37:58;;;;;;;;;;;17.60;80.90;;;;;;5065165;28;19916;-81
2023/06/08 02:40:23;;;;;;;;;;;17.50;81.20;;;;;;5064156;28;19912;-84
2023/06/08 02:42:49;;;;;;;;;;;17.40;82.00;;;;;;5042623;28;19912;-81
2023/06/08 02:45:14;;;;;;;;;;;17.30;82.30;;;;;;5064113;28;19909;-79
2023/06/08 02:47:40;;;;;;;;;;;17.30;82.50;;;;;;5062591;28;19909;-79
2023/06/08 02:50:06;;;;;;;;;;;17.30;83.10;;;;;;5059163;28;19908;-79
2023/06/08 02:52:31;;;;;;;;;;;17.20;83.50;;;;;;5064300;28;20318;-79
2023/06/08 02:54:57;;;;;;;;;;;17.20;83.60;;;;;;5062707;28;19912;-79
2023/06/08 02:57:22;;;;;;;;;;;17.30;83.80;;;;;;5056215;28;20763;-82
2023/06/08 02:59:48;;;;;;;;;;;17.20;84.00;;;;;;5053993;28;19913;-83
2023/06/08 03:02:14;;;;;;;;;;;17.20;84.20;;;;;;5062228;28;20035;-83
2023/06/08 03:04:43;;;;;;;;;;;17.20;84.50;;;;;;5056651;28;19919;-82
2023/06/08 03:07:09;;;;;;;;;;;17.20;84.40;;;;;;5055415;28;19955;-81
2023/06/08 03:09:35;;;;;;;;;;;17.30;84.00;;;;;;5053450;28;20298;-80
2023/06/08 03:12:01;;;;;;;;;;;17.30;83.80;;;;;;5058894;28;19913;-82
2023/06/08 03:14:30;;;;;;;;;;;17.30;84.00;;;;;;5062876;28;19992;-79
2023/06/08 03:17:02;;;;;;;;;;;17.10;84.70;;;;;;5054718;28;19927;-81
2023/06/08 03:19:30;;;;;;;;;;;17.10;84.80;;;;;;5063464;28;19908;-82
2023/06/08 03:21:57;;;;;;;;;;;17.10;85.00;;;;;;5058768;28;19919;-80
2023/06/08 03:24:23;;;;;;;;;;;17.10;85.40;;;;;;5063496;28;19920;-81
2023/06/08 03:26:48;;;;;;;;;;;17.00;86.10;;;;;;5043721;28;20272;-82
2023/06/08 03:29:14;;;;;;;;;;;17.00;86.30;;;;;;5055688;28;20068;-81
2023/06/08 03:31:40;;;;;;;;;;;17.00;86.80;;;;;;5053449;28;20011;-80
2023/06/08 03:34:05;;;;;;;;;;;16.90;87.00;;;;;;5038730;28;19912;-81
2023/06/08 03:36:35;;;;;;;;;;;16.80;87.90;;;;;;5054885;28;20382;-84
2023/06/08 03:39:04;;;;;;;;;;;16.90;87.40;;;;;;5058189;28;19920;-87
2023/06/08 03:41:30;;;;;;;;;;;16.90;87.20;;;;;;5059126;28;19991;-79
2023/06/08 03:43:55;;;;;;;;;;;17.10;86.20;;;;;;5043959;28;19985;-81
2023/06/08 03:46:21;;;;;;;;;;;17.20;85.60;;;;;;5062293;28;20344;-84
2023/06/08 03:48:47;;;;;;;;;;;17.20;85.20;;;;;;5061517;28;19919;-80
2023/06/08 03:51:13;;;;;;;;;;;17.30;84.50;;;;;;5060931;28;19919;-78
2023/06/08 03:53:39;;;;;;;;;;;17.40;84.10;;;;;;5059877;28;19994;-80
2023/06/08 03:56:04;;;;;;;;;;;17.40;83.90;;;;;;5038747;28;19967;-80
2023/06/08 03:58:30;;;;;;;;;;;17.30;84.10;;;;;;5058022;28;19913;-81
2023/06/08 04:00:56;;;;;;;;;;;17.40;83.80;;;;;;5058363;28;20491;-80
2023/06/08 04:03:24;;;;;;;;;;;17.40;83.80;;;;;;5039962;28;19917;-79
2023/06/08 04:05:50;;;;;;;;;;;17.50;83.20;;;;;;5037079;28;19912;-81
2023/06/08 04:08:17;;;;;;;;;;;17.50;83.00;;;;;;5040425;28;20647;-80
2023/06/08 04:10:43;;;;;;;;;;;17.40;83.40;;;;;;5059231;28;19923;-80
2023/06/08 04:13:09;;;;;;;;;;;17.40;83.20;;;;;;5056598;28;19912;-82
2023/06/08 04:15:34;;;;;;;;;;;17.50;82.90;;;;;;5057176;28;19935;-81
2023/06/08 04:18:02;;;;;;;;;;;17.50;82.60;;;;;;5059276;28;19974;-80
2023/06/08 04:20:28;;;;;;;;;;;17.60;82.50;;;;;;5058934;28;20728;-80
2023/06/08 04:22:53;;;;;;;;;;;17.70;82.00;;;;;;5050510;28;19912;-81
2023/06/08 04:25:19;;;;;;;;;;;17.70;82.00;;;;;;5019128;28;1159952;-84
2023/06/08 04:27:46;;;;;;;;;;;17.80;81.80;;;;;;5057347;28;19930;-80
2023/06/08 04:30:11;;;;;;;;;;;18.10;81.70;;;;;;5059927;28;19999;-81
2023/06/08 04:32:37;;;;;;;;;;;18.20;81.20;;;;;;5042244;28;20019;-80
2023/06/08 04:35:03;;;;;;;;;;;18.40;80.70;;;;;;5061111;28;19916;-80
2023/06/08 04:37:29;;;;;;;;;;;18.60;79.60;;;;;;5053743;28;19920;-80
2023/06/08 04:39:56;;;;;;;;;;;18.90;78.90;;;;;;5032501;28;19919;-80
2023/06/08 04:42:27;;;;;;;;;;;19.10;77.90;;;;;;5039485;28;19913;-77
2023/06/08 04:44:53;;;;;;;;;;;19.20;77.10;;;;;;5057247;28;19912;-78
2023/06/08 04:47:19;;;;;;;;;;;19.50;76.60;;;;;;5045131;28;19913;-77
2023/06/08 04:49:44;;;;;;;;;;;19.60;76.10;;;;;;5059161;28;19973;-80
2023/06/08 04:52:13;;;;;;;;;;;19.90;75.40;;;;;;5060203;28;19920;-77
2023/06/08 04:54:38;;;;;;;;;;;20.30;74.10;;;;;;5061747;28;20354;-79
2023/06/08 04:57:09;;;;;;;;;;;20.20;73.00;;;;;;5062745;28;19916;-77
2023/06/08 04:59:35;;;;;;;;;;;20.70;72.10;;;;;;5062037;28;20361;-81
2023/06/08 05:02:01;;;;;;;;;;;20.90;71.10;;;;;;5054384;28;19916;-79
2023/06/08 05:04:27;;;;;;;;;;;21.00;70.70;;;;;;5058816;28;19958;-77
2023/06/08 05:06:52;;;;;;;;;;;21.30;69.40;;;;;;5048513;28;19916;-77
2023/06/08 05:09:18;;;;;;;;;;;21.60;69.00;;;;;;5053985;28;19952;-77
2023/06/08 05:11:43;;;;;;;;;;;21.40;69.50;;;;;;5037493;28;19912;-77
2023/06/08 05:14:10;;;;;;;;;;;22.20;66.60;;;;;;5054483;28;19932;-77
2023/06/08 05:16:37;;;;;;;;;;;22.20;67.70;;;;;;5057981;28;19936;-76
2023/06/08 05:19:03;;;;;;;;;;;23.00;64.60;;;;;;5058945;28;19912;-77
2023/06/08 05:21:29;;;;;;;;;;;23.20;64.10;;;;;;5059777;28;19944;-80
2023/06/08 05:23:54;;;;;;;;;;;22.40;65.70;;;;;;5053880;28;19994;-81
2023/06/08 05:26:21;;;;;;;;;;;22.90;64.70;;;;;;5055623;28;20723;-81
2023/06/08 05:28:46;;;;;;;;;;;23.30;64.10;;;;;;5055918;28;19916;-80
2023/06/08 05:31:12;;;;;;;;;;;23.00;63.70;;;;;;5057016;28;19932;-83
2023/06/08 05:33:38;;;;;;;;;;;23.40;63.70;;;;;;5060765;28;20370;-80
2023/06/08 05:36:04;;;;;;;;;;;23.90;61.50;;;;;;5060067;28;19916;-79
2023/06/08 05:38:29;;;;;;;;;;;24.10;61.50;;;;;;5057770;28;19912;-81
2023/06/08 05:40:55;;;;;;;;;;;24.10;61.20;;;;;;5060588;28;20442;-85
2023/06/08 05:43:20;;;;;;;;;;;24.10;60.90;;;;;;5045535;28;19916;-85
2023/06/08 05:45:46;;;;;;;;;;;24.70;59.20;;;;;;5039456;28;19916;-83
2023/06/08 05:48:12;;;;;;;;;;;24.40;59.80;;;;;;5065025;28;20010;-83
2023/06/08 05:50:38;;;;;;;;;;;24.40;60.40;;;;;;5038571;28;20056;-84
2023/06/08 05:53:04;;;;;;;;;;;24.80;58.90;;;;;;5054252;28;20744;-85
2023/06/08 05:55:30;;;;;;;;;;;25.00;59.80;;;;;;5067701;28;19922;-87
2023/06/08 05:57:56;;;;;;;;;;;25.70;56.90;;;;;;5062653;28;19924;-85
2023/06/08 06:00:22;;;;;;;;;;;25.10;58.70;;;;;;5063505;28;19912;-79
2023/06/08 06:02:48;;;;;;;;;;;25.70;57.50;;;;;;5065817;28;19948;-81
2023/06/08 06:05:13;;;;;;;;;;;25.00;58.30;;;;;;5065817;28;19951;-79
2023/06/08 06:07:39;;;;;;;;;;;24.70;60.10;;;;;;5064665;28;20356;-79
2023/06/08 06:10:05;;;;;;;;;;;24.70;59.70;;;;;;5065643;28;19916;-79
2023/06/08 06:12:31;;;;;;;;;;;25.30;58.80;;;;;;5065103;28;19989;-79
2023/06/08 06:14:56;;;;;;;;;;;25.20;59.00;;;;;;5056825;28;19920;-81
2023/06/08 06:17:22;;;;;;;;;;;26.70;57.90;;;;;;5046450;28;20031;-83
2023/06/08 06:19:48;;;;;;;;;;;27.20;55.30;;;;;;5066281;28;19919;-83
2023/06/08 06:22:14;;;;;;;;;;;27.40;54.70;;;;;;5064806;28;19909;-83
2023/06/08 06:24:39;;;;;;;;;;;28.00;53.10;;;;;;5064176;28;19931;-83
2023/06/08 06:27:06;;;;;;;;;;;27.60;54.10;;;;;;5061576;28;19916;-82
2023/06/08 06:29:31;;;;;;;;;;;27.80;54.70;;;;;;5059274;28;20170;-86
2023/06/08 06:31:57;;;;;;;;;;;27.60;53.60;;;;;;5063774;28;20506;-82
2023/06/08 06:34:23;;;;;;;;;;;28.30;53.30;;;;;;5065470;28;20155;-83
2023/06/08 06:36:48;;;;;;;;;;;28.40;52.50;;;;;;5063373;28;20527;-83
2023/06/08 06:39:14;;;;;;;;;;;29.30;52.90;;;;;;5065777;28;20295;-84
2023/06/08 06:41:40;;;;;;;;;;;29.10;51.80;;;;;;5065869;28;19908;-82
2023/06/08 06:44:06;;;;;;;;;;;30.10;50.80;;;;;;5062902;28;20654;-84
2023/06/08 06:46:31;;;;;;;;;;;30.40;50.20;;;;;;5065118;28;20366;-84
2023/06/08 06:48:58;;;;;;;;;;;29.70;50.00;;;;;;5065823;28;19920;-83
2023/06/08 06:51:23;;;;;;;;;;;28.80;51.20;;;;;;5065607;28;19919;-84
2023/06/08 06:53:49;;;;;;;;;;;29.20;51.20;;;;;;5065942;28;19909;-84
2023/06/08 06:56:15;;;;;;;;;;;28.50;51.60;;;;;;5065848;28;19919;-84
2023/06/08 06:58:46;;;;;;;;;;;29.60;51.20;;;;;;5065530;28;19908;-83
2023/06/08 07:01:12;;;;;;;;;;;31.80;48.20;;;;;;5047542;28;19919;-82
2023/06/08 07:03:40;;;;;;;;;;;31.90;46.70;;;;;;5065619;28;19912;-84
2023/06/08 07:06:06;;;;;;;;;;;31.70;47.10;;;;;;5066039;28;19908;-83
2023/06/08 07:08:33;;;;;;;;;;;31.20;47.60;;;;;;5065893;28;19940;-82
2023/06/08 07:11:01;;;;;;;;;;;31.70;46.60;;;;;;5056645;28;19908;-83
2023/06/08 07:13:26;;;;;;;;;;;30.90;47.20;;;;;;5065284;28;19916;-83
2023/06/08 07:15:52;;;;;;;;;;;29.90;48.70;;;;;;5059234;28;19934;-82
2023/06/08 07:18:18;;;;;;;;;;;31.10;46.60;;;;;;5063371;28;20363;-82
2023/06/08 07:20:43;;;;;;;;;;;31.80;47.30;;;;;;5063201;28;19908;-83
2023/06/08 07:23:09;;;;;;;;;;;33.00;44.50;;;;;;5057831;28;19908;-82
2023/06/08 07:25:34;;;;;;;;;;;31.80;45.60;;;;;;5064258;28;19915;-82
2023/06/08 07:28:00;;;;;;;;;;;31.40;46.20;;;;;;5064605;28;19930;-82
2023/06/08 07:30:26;;;;;;;;;;;31.50;47.20;;;;;;5061005;28;20325;-83
2023/06/08 07:32:52;;;;;;;;;;;32.10;45.00;;;;;;5061658;28;19946;-86
2023/06/08 07:35:17;;;;;;;;;;;33.70;43.40;;;;;;5060863;28;20409;-83
2023/06/08 07:37:43;;;;;;;;;;;34.30;42.00;;;;;;5063535;28;19999;-82
2023/06/08 07:40:09;;;;;;;;;;;33.40;43.20;;;;;;5058063;28;19908;-84
2023/06/08 07:42:34;;;;;;;;;;;33.70;42.90;;;;;;5061562;28;20389;-82
2023/06/08 07:45:01;;;;;;;;;;;32.70;45.40;;;;;;5063152;28;19908;-82
2023/06/08 07:47:26;;;;;;;;;;;34.00;43.00;;;;;;5060252;28;19918;-85
2023/06/08 07:49:52;;;;;;;;;;;34.00;42.20;;;;;;5058148;28;20506;-84
2023/06/08 07:52:18;;;;;;;;;;;35.50;40.30;;;;;;5042352;28;19916;-83
2023/06/08 07:54:43;;;;;;;;;;;35.00;39.60;;;;;;5056325;28;19917;-82
2023/06/08 07:57:09;;;;;;;;;;;35.60;39.00;;;;;;5060403;28;20264;-84
2023/06/08 07:59:34;;;;;;;;;;;35.00;38.80;;;;;;5056755;28;19962;-83
2023/06/08 08:02:01;;;;;;;;;;;33.10;43.00;;;;;;5058447;28;20450;-84
2023/06/08 08:04:26;;;;;;;;;;;33.20;43.20;;;;;;5060587;28;19909;-83
2023/06/08 08:06:52;;;;;;;;;;;34.70;40.00;;;;;;5060189;28;19923;-83
2023/06/08 08:09:17;;;;;;;;;;;34.80;40.80;;;;;;5053199;28;20022;-84
2023/06/08 08:11:43;;;;;;;;;;;34.50;41.10;;;;;;5039435;28;19915;-82
2023/06/08 08:14:10;;;;;;;;;;;34.00;42.30;;;;;;5061165;28;19915;-85
2023/06/08 08:16:38;;;;;;;;;;;34.90;40.70;;;;;;5057384;28;19909;-82
2023/06/08 08:19:05;;;;;;;;;;;35.20;39.40;;;;;;5061897;28;19916;-83
2023/06/08 08:21:31;;;;;;;;;;;34.70;40.30;;;;;;5058751;28;19912;-85
2023/06/08 08:23:56;;;;;;;;;;;35.10;39.60;;;;;;5062800;28;20597;-83
2023/06/08 08:26:22;;;;;;;;;;;36.70;37.60;;;;;;5064178;28;19913;-83
2023/06/08 08:28:47;;;;;;;;;;;35.40;39.20;;;;;;5063075;28;19908;-84
2023/06/08 08:31:13;;;;;;;;;;;33.90;39.90;;;;;;5061507;28;19916;-83
2023/06/08 08:33:38;;;;;;;;;;;35.50;40.00;;;;;;5061560;28;19908;-83
2023/06/08 08:36:04;;;;;;;;;;;35.70;38.80;;;;;;5064274;28;19954;-83
2023/06/08 08:38:30;;;;;;;;;;;34.00;40.10;;;;;;5040215;28;20426;-83
2023/06/08 08:41:01;;;;;;;;;;;34.60;39.20;;;;;;5061048;28;20379;-83
2023/06/08 08:43:34;;;;;;;;;;;34.80;40.50;;;;;;5060587;28;19912;-84
2023/06/08 08:46:01;;;;;;;;;;;37.50;37.10;;;;;;5044559;28;20333;-83
2023/06/08 08:48:29;;;;;;;;;;;36.80;38.30;;;;;;5061602;28;20047;-85
2023/06/08 08:50:57;;;;;;;;;;;38.40;36.80;;;;;;5059851;28;19915;-84
2023/06/08 08:53:27;;;;;;;;;;;36.30;38.60;;;;;;5059483;28;19916;-83
2023/06/08 08:55:57;;;;;;;;;;;37.90;36.50;;;;;;5059604;28;19909;-83
2023/06/08 08:58:23;;;;;;;;;;;37.10;38.00;;;;;;5061712;28;19931;-84
2023/06/08 09:00:48;;;;;;;;;;;37.70;35.60;;;;;;5062735;28;19947;-83
2023/06/08 09:03:15;;;;;;;;;;;37.40;37.80;;;;;;5059708;28;20485;-83
2023/06/08 09:05:41;;;;;;;;;;;37.60;36.40;;;;;;5059583;28;19956;-83
2023/06/08 09:08:07;;;;;;;;;;;37.60;36.40;;;;;;5059654;28;20023;-83
2023/06/08 09:10:32;;;;;;;;;;;38.40;37.90;;;;;;5057554;28;19956;-84
2023/06/08 09:12:59;;;;;;;;;;;40.10;34.70;;;;;;5062550;28;20022;-84
2023/06/08 09:15:27;;;;;;;;;;;38.10;37.10;;;;;;5061619;28;19956;-85
2023/06/08 09:17:56;;;;;;;;;;;37.00;36.80;;;;;;5062386;28;20385;-83
2023/06/08 09:20:32;;;;;;;;;;;39.80;34.80;;;;;;5060421;28;19914;-84
2023/06/08 09:22:57;;;;;;;;;;;40.40;33.80;;;;;;5042774;28;19909;-83
2023/06/08 09:25:37;;;;;;;;;;;38.50;34.80;;;;;;5061404;28;19927;-83
2023/06/08 09:28:22;;;;;;;;;;;36.30;37.40;;;;;;5062501;28;19958;-84
2023/06/08 09:30:48;;;;;;;;;;;37.40;36.60;;;;;;5051506;28;19990;-84
2023/06/08 09:33:17;;;;;;;;;;;37.90;36.20;;;;;;5059886;28;19908;-83
2023/06/08 09:35:42;;;;;;;;;;;37.50;37.70;;;;;;5052475;28;19909;-84
2023/06/08 09:38:18;;;;;;;;;;;36.30;37.30;;;;;;5058052;28;19915;-83
2023/06/08 09:40:45;;;;;;;;;;;36.30;38.50;;;;;;5052792;28;20288;-83
2023/06/08 09:43:10;;;;;;;;;;;38.00;35.50;;;;;;5057034;28;19955;-85
2023/06/08 09:45:43;;;;;;;;;;;37.30;36.60;;;;;;5060509;28;20203;-83
2023/06/08 09:48:10;;;;;;;;;;;36.90;36.30;;;;;;5060183;28;20417;-84
2023/06/08 09:50:36;;;;;;;;;;;36.90;36.20;;;;;;5063124;28;19916;-83
2023/06/08 09:53:04;;;;;;;;;;;37.50;36.40;;;;;;5060561;28;19912;-83
2023/06/08 09:55:29;;;;;;;;;;;38.10;35.90;;;;;;5061644;28;19908;-83
2023/06/08 09:57:56;;;;;;;;;;;38.10;34.70;;;;;;5042569;28;20077;-83
2023/06/08 10:00:23;;;;;;;;;;;36.30;38.20;;;;;;5032381;28;19915;-83
2023/06/08 10:03:21;;;;;;;;;;;37.60;36.60;;;;;;5057249;28;19909;-84
2023/06/08 10:05:47;;;;;;;;;;;35.80;37.90;;;;;;5010460;28;19935;-84
2023/06/08 10:08:24;;;;;;;;;;;36.40;38.00;;;;;;5058609;28;19916;-84
2023/06/08 10:10:50;;;;;;;;;;;38.40;35.50;;;;;;5057311;28;19995;-83
2023/06/08 10:13:15;;;;;;;;;;;38.70;35.40;;;;;;5060888;28;19908;-85
2023/06/08 10:15:42;;;;;;;;;;;37.00;37.20;;;;;;5053555;28;19916;-84
2023/06/08 10:18:08;;;;;;;;;;;37.80;37.50;;;;;;5058403;28;20003;-86
2023/06/08 10:20:34;;;;;;;;;;;38.00;36.10;;;;;;5060894;28;19962;-85
2023/06/08 10:23:00;;;;;;;;;;;37.40;36.30;;;;;;5064391;28;19913;-86
2023/06/08 10:25:33;;;;;;;;;;;37.20;35.60;;;;;;5057048;28;19958;-86
2023/06/08 10:28:05;;;;;;;;;;;38.20;36.20;;;;;;5062425;28;19923;-86
2023/06/08 10:30:39;;;;;;;;;;;36.40;37.40;;;;;;5054297;28;19916;-84
2023/06/08 10:33:21;;;;;;;;;;;36.70;35.70;;;;;;5042199;28;19955;-86
2023/06/08 10:36:16;;;;;;;;;;;36.70;36.10;;;;;;5057866;28;19912;-86
2023/06/08 10:38:54;;;;;;;;;;;36.00;36.80;;;;;;5034403;28;19917;-85
2023/06/08 10:41:52;;;;;;;;;;;35.40;38.00;;;;;;5049951;28;19967;-86
2023/06/08 10:44:28;;;;;;;;;;;33.40;40.90;;;;;;5003313;28;19912;-85
2023/06/08 10:46:55;;;;;;;;;;;32.80;40.80;;;;;;5063672;28;19925;-85
2023/06/08 10:49:21;;;;;;;;;;;32.90;41.50;;;;;;5055746;28;20534;-86
2023/06/08 10:51:53;;;;;;;;;;;31.10;44.70;;;;;;5063917;28;19916;-85
2023/06/08 10:54:22;;;;;;;;;;;31.50;43.90;;;;;;5064496;28;19909;-85
2023/06/08 10:56:52;;;;;;;;;;;32.60;45.30;;;;;;5054233;28;19956;-85
2023/06/08 10:59:33;;;;;;;;;;;31.80;42.20;;;;;;5037281;28;19912;-86
2023/06/08 11:02:02;;;;;;;;;;;31.30;43.20;;;;;;5037257;28;19946;-85
2023/06/08 11:04:31;;;;;;;;;;;30.10;44.60;;;;;;5063513;28;20446;-85
2023/06/08 11:07:00;;;;;;;;;;;30.10;45.30;;;;;;5052694;28;20034;-85
2023/06/08 11:09:27;;;;;;;;;;;29.70;45.70;;;;;;5035139;28;19924;-86
2023/06/08 11:11:53;;;;;;;;;;;29.60;46.10;;;;;;5055764;28;20367;-85
2023/06/08 11:14:19;;;;;;;;;;;28.70;46.00;;;;;;5051690;28;20014;-85
2023/06/08 11:16:52;;;;;;;;;;;29.10;46.60;;;;;;5048708;28;19915;-85
2023/06/08 11:19:18;;;;;;;;;;;30.40;44.80;;;;;;5050655;28;19916;-85
2023/06/08 11:21:47;;;;;;;;;;;31.10;45.20;;;;;;5051737;28;19916;-85
2023/06/08 11:24:13;;;;;;;;;;;30.90;45.50;;;;;;5059280;28;19924;-86
2023/06/08 11:26:38;;;;;;;;;;;30.80;45.10;;;;;;5049332;28;19924;-85
2023/06/08 11:29:04;;;;;;;;;;;31.00;46.30;;;;;;5048250;28;19908;-85
2023/06/08 11:31:39;;;;;;;;;;;31.10;45.70;;;;;;5052992;28;19916;-85
2023/06/08 11:34:05;;;;;;;;;;;30.10;45.20;;;;;;5058546;28;19916;-85
2023/06/08 11:36:32;;;;;;;;;;;30.40;45.40;;;;;;5051870;28;19916;-84
2023/06/08 11:38:57;;;;;;;;;;;30.00;45.40;;;;;;5057666;28;19939;-84
2023/06/08 11:41:23;;;;;;;;;;;29.70;44.90;;;;;;5044407;28;19970;-84
2023/06/08 11:43:49;;;;;;;;;;;30.10;45.90;;;;;;5049786;28;20496;-84
2023/06/08 11:46:15;;;;;;;;;;;29.50;47.30;;;;;;5046337;28;20422;-84
2023/06/08 11:48:41;;;;;;;;;;;29.10;47.10;;;;;;5041322;28;20223;-85
2023/06/08 11:51:07;;;;;;;;;;;29.80;47.50;;;;;;5056116;28;19916;-84
2023/06/08 11:53:32;;;;;;;;;;;30.10;47.00;;;;;;5059274;28;20466;-84
2023/06/08 11:55:59;;;;;;;;;;;29.90;47.10;;;;;;5054302;28;19912;-84
2023/06/08 11:58:29;;;;;;;;;;;29.40;47.20;;;;;;5049440;28;19913;-84
2023/06/08 12:01:08;;;;;;;;;;;29.40;47.80;;;;;;5051712;28;20446;-84
2023/06/08 12:03:43;;;;;;;;;;;28.20;48.20;;;;;;5053383;28;19918;-84
2023/06/08 12:06:09;;;;;;;;;;;28.50;48.30;;;;;;5055541;28;19919;-84
2023/06/08 12:08:35;;;;;;;;;;;28.20;49.70;;;;;;5052684;28;19921;-84
2023/06/08 12:11:06;;;;;;;;;;;28.60;48.30;;;;;;5056157;28;19915;-84
2023/06/08 12:13:32;;;;;;;;;;;29.10;47.70;;;;;;5059272;28;19922;-84
2023/06/08 12:15:57;;;;;;;;;;;29.30;47.10;;;;;;5054135;28;19913;-85
2023/06/08 12:18:23;;;;;;;;;;;29.20;47.90;;;;;;5048632;28;19909;-85
2023/06/08 12:20:52;;;;;;;;;;;29.20;48.00;;;;;;5054896;28;19924;-86
2023/06/08 12:23:18;;;;;;;;;;;29.50;46.70;;;;;;5039853;28;20396;-84
2023/06/08 12:25:44;;;;;;;;;;;29.60;47.80;;;;;;5060863;28;19916;-82
2023/06/08 12:28:17;;;;;;;;;;;29.20;48.20;;;;;;5062063;28;20379;-83
2023/06/08 12:30:43;;;;;;;;;;;29.50;46.50;;;;;;5062228;28;20179;-83
2023/06/08 12:33:10;;;;;;;;;;;29.20;47.20;;;;;;5062052;28;20684;-83
2023/06/08 12:35:35;;;;;;;;;;;29.10;47.90;;;;;;5062954;28;19908;-82
2023/06/08 12:38:01;;;;;;;;;;;28.30;49.60;;;;;;5062304;28;19915;-82
2023/06/08 12:40:27;;;;;;;;;;;27.90;49.60;;;;;;5063138;28;19913;-82
2023/06/08 12:42:52;;;;;;;;;;;28.30;49.40;;;;;;5062312;28;20275;-82
2023/06/08 12:45:21;;;;;;;;;;;27.80;49.60;;;;;;5063524;28;20370;-82
2023/06/08 12:47:47;;;;;;;;;;;27.90;49.50;;;;;;5042015;28;20513;-84
2023/06/08 12:50:14;;;;;;;;;;;28.30;51.30;;;;;;5064045;28;19959;-82
2023/06/08 12:52:41;;;;;;;;;;;28.50;50.90;;;;;;5063542;28;19995;-82
2023/06/08 12:55:07;;;;;;;;;;;28.30;49.60;;;;;;5064012;28;19914;-82
2023/06/08 12:57:33;;;;;;;;;;;28.60;49.80;;;;;;5063068;28;20705;-82
2023/06/08 12:59:58;;;;;;;;;;;28.80;50.50;;;;;;5044466;28;20486;-84
2023/06/08 13:02:25;;;;;;;;;;;28.50;48.30;;;;;;5062922;28;19908;-83
2023/06/08 13:04:52;;;;;;;;;;;28.20;49.60;;;;;;5062754;28;19915;-82
2023/06/08 13:07:18;;;;;;;;;;;28.10;49.00;;;;;;5062053;28;20012;-83
2023/06/08 13:09:43;;;;;;;;;;;27.80;48.70;;;;;;5053499;28;19999;-83
2023/06/08 13:12:09;;;;;;;;;;;27.50;50.20;;;;;;5058137;28;20007;-82
2023/06/08 13:14:34;;;;;;;;;;;28.00;49.40;;;;;;5060609;28;19908;-82
2023/06/08 13:17:01;;;;;;;;;;;28.30;49.70;;;;;;5058057;28;19915;-82
2023/06/08 13:19:27;;;;;;;;;;;28.50;48.80;;;;;;5062669;28;19908;-83
2023/06/08 13:21:53;;;;;;;;;;;28.20;48.90;;;;;;5056273;28;19908;-83
2023/06/08 13:24:20;;;;;;;;;;;27.80;48.50;;;;;;5052637;28;19928;-82
2023/06/08 13:26:47;;;;;;;;;;;28.10;48.30;;;;;;5061905;28;19920;-82
2023/06/08 13:29:16;;;;;;;;;;;28.00;50.00;;;;;;5044556;28;20361;-82
2023/06/08 13:31:44;;;;;;;;;;;28.10;48.70;;;;;;5061113;28;19916;-82
2023/06/08 13:34:10;;;;;;;;;;;28.10;48.70;;;;;;5059291;28;19934;-82
2023/06/08 13:36:36;;;;;;;;;;;28.00;48.40;;;;;;5059000;28;20439;-85
2023/06/08 13:39:01;;;;;;;;;;;28.50;48.60;;;;;;5061832;28;20264;-84
2023/06/08 13:41:33;;;;;;;;;;;28.80;48.70;;;;;;5056658;28;19916;-86
2023/06/08 13:43:59;;;;;;;;;;;28.20;47.50;;;;;;5054462;28;19912;-84
2023/06/08 13:46:24;;;;;;;;;;;28.30;50.00;;;;;;5055207;28;19916;-85
2023/06/08 13:48:50;;;;;;;;;;;28.60;47.10;;;;;;5039031;28;20033;-86
2023/06/08 13:51:16;;;;;;;;;;;28.60;47.70;;;;;;5050472;28;19944;-86
2023/06/08 13:53:41;;;;;;;;;;;28.70;47.70;;;;;;5058844;28;19957;-88
2023/06/08 13:56:08;;;;;;;;;;;28.40;48.00;;;;;;5059870;28;19955;-87
2023/06/08 13:58:33;;;;;;;;;;;28.50;49.10;;;;;;5045062;28;19966;-87
2023/06/08 14:00:59;;;;;;;;;;;28.10;49.60;;;;;;5057084;28;19936;-87
2023/06/08 14:03:25;;;;;;;;;;;28.10;48.60;;;;;;5066368;28;19999;-87
2023/06/08 14:05:51;;;;;;;;;;;28.40;49.10;;;;;;5062718;28;19956;-87
2023/06/08 14:08:17;;;;;;;;;;;28.60;48.40;;;;;;5059245;28;20015;-89
2023/06/08 14:10:43;;;;;;;;;;;28.30;48.90;;;;;;5061122;28;20421;-87
2023/06/08 14:13:09;;;;;;;;;;;28.20;50.80;;;;;;5064841;28;19913;-89
2023/06/08 14:15:34;;;;;;;;;;;28.20;48.80;;;;;;5050675;28;19913;-88